sensor_id;sensor_type;location;lat;lon;timestamp;P1;durP1;ratioP1;P2;durP2;ratioP2
69534;SDS011;56754;51.568;5.048;2023-07-16T00:00:28;4.75;;;1.17;;
69534;SDS011;56754;51.568;5.048;2023-07-16T00:02:53;5.73;;;1.30;;
69534;SDS011;56754;51.568;5.048;2023-07-16T00:05:19;5.07;;;1.00;;
69534;SDS011;56754;51.568;5.048;2023-07-16T00:07:44;5.87;;;1.40;;
69534;SDS011;56754;51.568;5.048;2023-07-16T00:10:09;5.37;;;1.10;;
69534;SDS011;56754;51.568;5.048;2023-07-16T00:12:35;5.10;;;1.20;;
69534;SDS011;56754;51.568;5.048;2023-07-16T00:15:00;4.00;;;0.90;;
69534;SDS011;56754;51.568;5.048;2023-07-16T00:17:25;5.13;;;1.20;;
69534;SDS011;56754;51.568;5.048;2023-07-16T00:19:51;6.17;;;1.40;;
69534;SDS011;56754;51.568;5.048;2023-07-16T00:22:16;4.17;;;1.00;;
69534;SDS011;56754;51.568;5.048;2023-07-16T00:24:41;3.43;;;0.90;;
69534;SDS011;56754;51.568;5.048;2023-07-16T00:27:07;3.93;;;0.97;;
69534;SDS011;56754;51.568;5.048;2023-07-16T00:29:32;3.47;;;1.00;;
69534;SDS011;56754;51.568;5.048;2023-07-16T00:31:57;4.73;;;1.30;;
69534;SDS011;56754;51.568;5.048;2023-07-16T00:34:22;4.33;;;1.13;;
69534;SDS011;56754;51.568;5.048;2023-07-16T00:36:48;5.37;;;1.40;;
69534;SDS011;56754;51.568;5.048;2023-07-16T00:39:13;6.53;;;1.23;;
69534;SDS011;56754;51.568;5.048;2023-07-16T00:41:38;5.77;;;1.27;;
69534;SDS011;56754;51.568;5.048;2023-07-16T00:44:03;5.17;;;1.30;;
69534;SDS011;56754;51.568;5.048;2023-07-16T00:46:29;4.07;;;1.30;;
69534;SDS011;56754;51.568;5.048;2023-07-16T00:48:54;5.23;;;1.23;;
69534;SDS011;56754;51.568;5.048;2023-07-16T00:51:19;5.40;;;1.40;;
69534;SDS011;56754;51.568;5.048;2023-07-16T00:53:48;7.60;;;1.35;;
69534;SDS011;56754;51.568;5.048;2023-07-16T00:56:15;5.73;;;1.30;;
69534;SDS011;56754;51.568;5.048;2023-07-16T00:58:41;4.97;;;1.17;;
69534;SDS011;56754;51.568;5.048;2023-07-16T01:01:07;4.53;;;1.10;;
69534;SDS011;56754;51.568;5.048;2023-07-16T01:03:32;5.87;;;1.40;;
69534;SDS011;56754;51.568;5.048;2023-07-16T01:06:00;5.10;;;1.37;;
69534;SDS011;56754;51.568;5.048;2023-07-16T01:08:49;4.90;;;1.20;;
69534;SDS011;56754;51.568;5.048;2023-07-16T01:11:35;5.00;;;1.02;;
69534;SDS011;56754;51.568;5.048;2023-07-16T01:14:02;4.50;;;1.20;;
69534;SDS011;56754;51.568;5.048;2023-07-16T01:16:28;5.10;;;1.15;;
69534;SDS011;56754;51.568;5.048;2023-07-16T01:18:53;4.50;;;1.33;;
69534;SDS011;56754;51.568;5.048;2023-07-16T01:21:19;5.73;;;1.20;;
69534;SDS011;56754;51.568;5.048;2023-07-16T01:24:12;6.15;;;1.63;;
69534;SDS011;56754;51.568;5.048;2023-07-16T01:26:48;7.00;;;1.40;;
69534;SDS011;56754;51.568;5.048;2023-07-16T01:29:30;4.55;;;1.30;;
69534;SDS011;56754;51.568;5.048;2023-07-16T01:32:00;3.47;;;1.20;;
69534;SDS011;56754;51.568;5.048;2023-07-16T01:34:28;3.55;;;1.40;;
69534;SDS011;56754;51.568;5.048;2023-07-16T01:36:55;6.00;;;1.55;;
69534;SDS011;56754;51.568;5.048;2023-07-16T01:39:21;5.27;;;1.23;;
69534;SDS011;56754;51.568;5.048;2023-07-16T01:41:46;6.00;;;1.53;;
69534;SDS011;56754;51.568;5.048;2023-07-16T01:44:11;7.87;;;1.60;;
69534;SDS011;56754;51.568;5.048;2023-07-16T01:46:37;4.77;;;1.30;;
69534;SDS011;56754;51.568;5.048;2023-07-16T01:49:02;4.78;;;1.20;;
69534;SDS011;56754;51.568;5.048;2023-07-16T01:51:27;5.77;;;1.47;;
69534;SDS011;56754;51.568;5.048;2023-07-16T01:53:53;5.23;;;1.40;;
69534;SDS011;56754;51.568;5.048;2023-07-16T01:56:18;4.93;;;1.30;;
69534;SDS011;56754;51.568;5.048;2023-07-16T01:58:43;6.37;;;1.53;;
69534;SDS011;56754;51.568;5.048;2023-07-16T02:01:08;4.77;;;1.17;;
69534;SDS011;56754;51.568;5.048;2023-07-16T02:03:34;5.27;;;1.30;;
69534;SDS011;56754;51.568;5.048;2023-07-16T02:05:59;5.60;;;1.40;;
69534;SDS011;56754;51.568;5.048;2023-07-16T02:08:24;3.83;;;1.20;;
69534;SDS011;56754;51.568;5.048;2023-07-16T02:10:50;5.53;;;1.50;;
69534;SDS011;56754;51.568;5.048;2023-07-16T02:13:15;4.77;;;1.53;;
69534;SDS011;56754;51.568;5.048;2023-07-16T02:15:41;5.33;;;1.50;;
69534;SDS011;56754;51.568;5.048;2023-07-16T02:18:08;4.70;;;1.20;;
69534;SDS011;56754;51.568;5.048;2023-07-16T02:20:33;5.30;;;1.53;;
69534;SDS011;56754;51.568;5.048;2023-07-16T02:22:58;4.03;;;1.30;;
69534;SDS011;56754;51.568;5.048;2023-07-16T02:25:23;6.43;;;1.47;;
69534;SDS011;56754;51.568;5.048;2023-07-16T02:27:49;5.57;;;1.50;;
69534;SDS011;56754;51.568;5.048;2023-07-16T02:30:14;8.60;;;1.50;;
69534;SDS011;56754;51.568;5.048;2023-07-16T02:32:40;5.68;;;1.30;;
69534;SDS011;56754;51.568;5.048;2023-07-16T02:35:05;6.07;;;1.37;;
69534;SDS011;56754;51.568;5.048;2023-07-16T02:37:31;4.03;;;1.20;;
69534;SDS011;56754;51.568;5.048;2023-07-16T02:39:57;4.60;;;1.30;;
69534;SDS011;56754;51.568;5.048;2023-07-16T02:42:24;5.53;;;1.40;;
69534;SDS011;56754;51.568;5.048;2023-07-16T02:44:49;5.40;;;1.40;;
69534;SDS011;56754;51.568;5.048;2023-07-16T02:47:15;4.03;;;1.30;;
69534;SDS011;56754;51.568;5.048;2023-07-16T02:49:40;5.23;;;1.50;;
69534;SDS011;56754;51.568;5.048;2023-07-16T02:52:05;5.47;;;1.40;;
69534;SDS011;56754;51.568;5.048;2023-07-16T02:54:31;5.78;;;1.40;;
69534;SDS011;56754;51.568;5.048;2023-07-16T02:56:57;5.77;;;1.60;;
69534;SDS011;56754;51.568;5.048;2023-07-16T02:59:23;5.38;;;1.52;;
69534;SDS011;56754;51.568;5.048;2023-07-16T03:01:48;5.67;;;1.60;;
69534;SDS011;56754;51.568;5.048;2023-07-16T03:04:13;7.30;;;1.67;;
69534;SDS011;56754;51.568;5.048;2023-07-16T03:06:39;7.73;;;1.83;;
69534;SDS011;56754;51.568;5.048;2023-07-16T03:09:04;5.00;;;1.50;;
69534;SDS011;56754;51.568;5.048;2023-07-16T03:11:29;5.03;;;1.73;;
69534;SDS011;56754;51.568;5.048;2023-07-16T03:13:54;5.53;;;1.60;;
69534;SDS011;56754;51.568;5.048;2023-07-16T03:16:20;5.30;;;1.60;;
69534;SDS011;56754;51.568;5.048;2023-07-16T03:18:45;6.00;;;1.40;;
69534;SDS011;56754;51.568;5.048;2023-07-16T03:21:10;6.50;;;1.57;;
69534;SDS011;56754;51.568;5.048;2023-07-16T03:23:36;5.80;;;1.45;;
69534;SDS011;56754;51.568;5.048;2023-07-16T03:26:01;4.97;;;1.40;;
69534;SDS011;56754;51.568;5.048;2023-07-16T03:28:27;5.97;;;1.70;;
69534;SDS011;56754;51.568;5.048;2023-07-16T03:30:52;7.00;;;1.80;;
69534;SDS011;56754;51.568;5.048;2023-07-16T03:33:17;6.00;;;1.73;;
69534;SDS011;56754;51.568;5.048;2023-07-16T03:35:43;4.00;;;1.30;;
69534;SDS011;56754;51.568;5.048;2023-07-16T03:38:09;5.25;;;1.67;;
69534;SDS011;56754;51.568;5.048;2023-07-16T03:40:35;4.20;;;1.73;;
69534;SDS011;56754;51.568;5.048;2023-07-16T03:43:00;5.30;;;1.67;;
69534;SDS011;56754;51.568;5.048;2023-07-16T03:45:26;4.70;;;1.40;;
69534;SDS011;56754;51.568;5.048;2023-07-16T03:47:51;5.67;;;1.97;;
69534;SDS011;56754;51.568;5.048;2023-07-16T03:50:16;6.13;;;1.80;;
69534;SDS011;56754;51.568;5.048;2023-07-16T03:52:43;6.32;;;1.67;;
69534;SDS011;56754;51.568;5.048;2023-07-16T03:55:08;7.50;;;1.80;;
69534;SDS011;56754;51.568;5.048;2023-07-16T03:57:34;4.18;;;1.40;;
69534;SDS011;56754;51.568;5.048;2023-07-16T04:00:00;6.67;;;1.60;;
69534;SDS011;56754;51.568;5.048;2023-07-16T04:02:25;6.10;;;2.00;;
69534;SDS011;56754;51.568;5.048;2023-07-16T04:04:51;5.67;;;1.80;;
69534;SDS011;56754;51.568;5.048;2023-07-16T04:07:17;7.23;;;2.17;;
69534;SDS011;56754;51.568;5.048;2023-07-16T04:09:42;7.75;;;2.20;;
69534;SDS011;56754;51.568;5.048;2023-07-16T04:12:08;5.33;;;1.90;;
69534;SDS011;56754;51.568;5.048;2023-07-16T04:14:33;5.40;;;2.07;;
69534;SDS011;56754;51.568;5.048;2023-07-16T04:16:58;4.60;;;2.00;;
69534;SDS011;56754;51.568;5.048;2023-07-16T04:19:23;7.03;;;2.30;;
69534;SDS011;56754;51.568;5.048;2023-07-16T04:21:49;7.10;;;1.90;;
69534;SDS011;56754;51.568;5.048;2023-07-16T04:24:14;6.30;;;2.00;;
69534;SDS011;56754;51.568;5.048;2023-07-16T04:26:39;5.70;;;2.10;;
69534;SDS011;56754;51.568;5.048;2023-07-16T04:29:05;7.53;;;2.50;;
69534;SDS011;56754;51.568;5.048;2023-07-16T04:31:30;7.77;;;2.40;;
69534;SDS011;56754;51.568;5.048;2023-07-16T04:33:55;6.73;;;2.27;;
69534;SDS011;56754;51.568;5.048;2023-07-16T04:36:21;7.20;;;2.27;;
69534;SDS011;56754;51.568;5.048;2023-07-16T04:38:46;7.83;;;2.30;;
69534;SDS011;56754;51.568;5.048;2023-07-16T04:41:11;6.85;;;2.17;;
69534;SDS011;56754;51.568;5.048;2023-07-16T04:43:36;7.80;;;2.50;;
69534;SDS011;56754;51.568;5.048;2023-07-16T04:46:02;8.87;;;2.50;;
69534;SDS011;56754;51.568;5.048;2023-07-16T04:48:27;6.07;;;2.10;;
69534;SDS011;56754;51.568;5.048;2023-07-16T04:50:52;5.57;;;2.27;;
69534;SDS011;56754;51.568;5.048;2023-07-16T04:53:17;7.10;;;2.27;;
69534;SDS011;56754;51.568;5.048;2023-07-16T04:55:43;8.77;;;2.50;;
69534;SDS011;56754;51.568;5.048;2023-07-16T04:58:09;7.27;;;2.53;;
69534;SDS011;56754;51.568;5.048;2023-07-16T05:00:36;6.30;;;2.50;;
69534;SDS011;56754;51.568;5.048;2023-07-16T05:03:01;7.27;;;2.17;;
69534;SDS011;56754;51.568;5.048;2023-07-16T05:05:26;6.93;;;2.47;;
69534;SDS011;56754;51.568;5.048;2023-07-16T05:07:52;6.43;;;2.73;;
69534;SDS011;56754;51.568;5.048;2023-07-16T05:10:17;7.82;;;2.65;;
69534;SDS011;56754;51.568;5.048;2023-07-16T05:12:42;6.90;;;2.70;;
69534;SDS011;56754;51.568;5.048;2023-07-16T05:15:09;8.20;;;3.00;;
69534;SDS011;56754;51.568;5.048;2023-07-16T05:17:34;8.27;;;2.38;;
69534;SDS011;56754;51.568;5.048;2023-07-16T05:19:59;6.37;;;2.80;;
69534;SDS011;56754;51.568;5.048;2023-07-16T05:22:25;8.50;;;2.90;;
69534;SDS011;56754;51.568;5.048;2023-07-16T05:24:50;8.57;;;2.80;;
69534;SDS011;56754;51.568;5.048;2023-07-16T05:27:15;8.73;;;2.60;;
69534;SDS011;56754;51.568;5.048;2023-07-16T05:29:41;6.47;;;2.50;;
69534;SDS011;56754;51.568;5.048;2023-07-16T05:32:06;7.40;;;2.80;;
69534;SDS011;56754;51.568;5.048;2023-07-16T05:34:32;6.90;;;2.87;;
69534;SDS011;56754;51.568;5.048;2023-07-16T05:36:57;8.07;;;3.00;;
69534;SDS011;56754;51.568;5.048;2023-07-16T05:39:22;8.00;;;2.92;;
69534;SDS011;56754;51.568;5.048;2023-07-16T05:41:48;7.50;;;2.53;;
69534;SDS011;56754;51.568;5.048;2023-07-16T05:44:13;7.53;;;2.70;;
69534;SDS011;56754;51.568;5.048;2023-07-16T05:46:38;6.93;;;2.77;;
69534;SDS011;56754;51.568;5.048;2023-07-16T05:49:03;6.37;;;2.67;;
69534;SDS011;56754;51.568;5.048;2023-07-16T05:51:29;6.20;;;2.73;;
69534;SDS011;56754;51.568;5.048;2023-07-16T05:53:54;6.50;;;2.50;;
69534;SDS011;56754;51.568;5.048;2023-07-16T05:56:19;8.97;;;2.97;;
69534;SDS011;56754;51.568;5.048;2023-07-16T05:58:45;6.00;;;3.10;;
69534;SDS011;56754;51.568;5.048;2023-07-16T06:01:10;9.20;;;3.40;;
69534;SDS011;56754;51.568;5.048;2023-07-16T06:03:35;8.80;;;3.00;;
69534;SDS011;56754;51.568;5.048;2023-07-16T06:06:00;5.40;;;2.60;;
69534;SDS011;56754;51.568;5.048;2023-07-16T06:08:26;9.03;;;3.00;;
69534;SDS011;56754;51.568;5.048;2023-07-16T06:10:51;6.77;;;2.70;;
69534;SDS011;56754;51.568;5.048;2023-07-16T06:13:16;8.37;;;3.57;;
69534;SDS011;56754;51.568;5.048;2023-07-16T06:15:42;7.05;;;2.85;;
69534;SDS011;56754;51.568;5.048;2023-07-16T06:18:08;8.33;;;3.10;;
69534;SDS011;56754;51.568;5.048;2023-07-16T06:20:34;8.60;;;3.10;;
69534;SDS011;56754;51.568;5.048;2023-07-16T06:22:59;9.63;;;3.37;;
69534;SDS011;56754;51.568;5.048;2023-07-16T06:25:24;8.83;;;3.37;;
69534;SDS011;56754;51.568;5.048;2023-07-16T06:27:50;7.17;;;3.23;;
69534;SDS011;56754;51.568;5.048;2023-07-16T06:30:15;7.63;;;3.10;;
69534;SDS011;56754;51.568;5.048;2023-07-16T06:32:40;9.17;;;3.87;;
69534;SDS011;56754;51.568;5.048;2023-07-16T06:35:06;7.90;;;3.50;;
69534;SDS011;56754;51.568;5.048;2023-07-16T06:37:31;8.57;;;3.33;;
69534;SDS011;56754;51.568;5.048;2023-07-16T06:39:56;7.40;;;3.13;;
69534;SDS011;56754;51.568;5.048;2023-07-16T06:42:22;7.43;;;3.00;;
69534;SDS011;56754;51.568;5.048;2023-07-16T06:44:47;7.77;;;3.43;;
69534;SDS011;56754;51.568;5.048;2023-07-16T06:47:12;9.23;;;3.33;;
69534;SDS011;56754;51.568;5.048;2023-07-16T06:49:37;7.47;;;3.17;;
69534;SDS011;56754;51.568;5.048;2023-07-16T06:52:03;9.97;;;3.43;;
69534;SDS011;56754;51.568;5.048;2023-07-16T06:54:28;9.33;;;3.77;;
69534;SDS011;56754;51.568;5.048;2023-07-16T06:56:53;8.30;;;3.57;;
69534;SDS011;56754;51.568;5.048;2023-07-16T06:59:19;9.90;;;3.80;;
69534;SDS011;56754;51.568;5.048;2023-07-16T07:01:44;9.50;;;3.20;;
69534;SDS011;56754;51.568;5.048;2023-07-16T07:04:09;8.60;;;3.50;;
69534;SDS011;56754;51.568;5.048;2023-07-16T07:06:34;5.83;;;2.80;;
69534;SDS011;56754;51.568;5.048;2023-07-16T07:09:00;8.13;;;3.27;;
69534;SDS011;56754;51.568;5.048;2023-07-16T07:11:25;9.00;;;3.37;;
69534;SDS011;56754;51.568;5.048;2023-07-16T07:13:51;7.90;;;3.70;;
69534;SDS011;56754;51.568;5.048;2023-07-16T07:16:17;8.10;;;3.10;;
69534;SDS011;56754;51.568;5.048;2023-07-16T07:18:42;7.50;;;3.07;;
69534;SDS011;56754;51.568;5.048;2023-07-16T07:21:08;7.85;;;3.28;;
69534;SDS011;56754;51.568;5.048;2023-07-16T07:23:33;8.50;;;3.40;;
69534;SDS011;56754;51.568;5.048;2023-07-16T07:25:58;8.27;;;3.30;;
69534;SDS011;56754;51.568;5.048;2023-07-16T07:28:24;7.00;;;3.30;;
69534;SDS011;56754;51.568;5.048;2023-07-16T07:30:50;8.50;;;3.15;;
69534;SDS011;56754;51.568;5.048;2023-07-16T07:33:15;8.97;;;3.70;;
69534;SDS011;56754;51.568;5.048;2023-07-16T07:35:41;7.37;;;3.40;;
69534;SDS011;56754;51.568;5.048;2023-07-16T07:38:06;7.93;;;3.43;;
69534;SDS011;56754;51.568;5.048;2023-07-16T07:40:32;8.85;;;3.33;;
69534;SDS011;56754;51.568;5.048;2023-07-16T07:42:57;7.27;;;3.40;;
69534;SDS011;56754;51.568;5.048;2023-07-16T07:45:23;8.03;;;3.60;;
69534;SDS011;56754;51.568;5.048;2023-07-16T07:47:48;8.80;;;3.10;;
69534;SDS011;56754;51.568;5.048;2023-07-16T07:50:14;9.10;;;3.23;;
69534;SDS011;56754;51.568;5.048;2023-07-16T07:52:39;8.33;;;3.33;;
69534;SDS011;56754;51.568;5.048;2023-07-16T07:55:04;9.17;;;3.63;;
69534;SDS011;56754;51.568;5.048;2023-07-16T07:57:30;7.90;;;3.30;;
69534;SDS011;56754;51.568;5.048;2023-07-16T07:59:55;9.20;;;3.77;;
69534;SDS011;56754;51.568;5.048;2023-07-16T08:02:20;9.23;;;3.45;;
69534;SDS011;56754;51.568;5.048;2023-07-16T08:04:46;8.43;;;3.50;;
69534;SDS011;56754;51.568;5.048;2023-07-16T08:07:11;10.00;;;3.67;;
69534;SDS011;56754;51.568;5.048;2023-07-16T08:09:37;9.13;;;3.50;;
69534;SDS011;56754;51.568;5.048;2023-07-16T08:12:02;7.25;;;3.75;;
69534;SDS011;56754;51.568;5.048;2023-07-16T08:14:28;7.53;;;3.50;;
69534;SDS011;56754;51.568;5.048;2023-07-16T08:16:53;7.57;;;3.40;;
69534;SDS011;56754;51.568;5.048;2023-07-16T08:19:18;8.07;;;3.47;;
69534;SDS011;56754;51.568;5.048;2023-07-16T08:21:44;8.30;;;3.37;;
69534;SDS011;56754;51.568;5.048;2023-07-16T08:24:09;8.83;;;3.50;;
69534;SDS011;56754;51.568;5.048;2023-07-16T08:26:34;9.55;;;3.65;;
69534;SDS011;56754;51.568;5.048;2023-07-16T08:28:59;7.93;;;3.33;;
69534;SDS011;56754;51.568;5.048;2023-07-16T08:31:25;9.00;;;3.47;;
69534;SDS011;56754;51.568;5.048;2023-07-16T08:33:50;8.43;;;3.67;;
69534;SDS011;56754;51.568;5.048;2023-07-16T08:36:15;9.00;;;3.50;;
69534;SDS011;56754;51.568;5.048;2023-07-16T08:38:41;11.37;;;3.50;;
69534;SDS011;56754;51.568;5.048;2023-07-16T08:41:06;8.53;;;3.07;;
69534;SDS011;56754;51.568;5.048;2023-07-16T08:43:32;8.33;;;3.37;;
69534;SDS011;56754;51.568;5.048;2023-07-16T08:45:58;9.55;;;3.92;;
69534;SDS011;56754;51.568;5.048;2023-07-16T08:48:23;7.47;;;3.42;;
69534;SDS011;56754;51.568;5.048;2023-07-16T08:50:49;8.57;;;3.67;;
69534;SDS011;56754;51.568;5.048;2023-07-16T08:53:15;9.30;;;3.63;;
69534;SDS011;56754;51.568;5.048;2023-07-16T08:55:41;8.57;;;3.28;;
69534;SDS011;56754;51.568;5.048;2023-07-16T08:58:09;9.03;;;3.37;;
69534;SDS011;56754;51.568;5.048;2023-07-16T09:00:36;7.82;;;3.45;;
69534;SDS011;56754;51.568;5.048;2023-07-16T09:03:02;9.13;;;3.83;;
69534;SDS011;56754;51.568;5.048;2023-07-16T09:05:28;8.55;;;3.25;;
69534;SDS011;56754;51.568;5.048;2023-07-16T09:07:54;7.30;;;3.67;;
69534;SDS011;56754;51.568;5.048;2023-07-16T09:10:19;7.90;;;3.70;;
69534;SDS011;56754;51.568;5.048;2023-07-16T09:12:45;8.47;;;3.20;;
69534;SDS011;56754;51.568;5.048;2023-07-16T09:15:11;8.95;;;3.35;;
69534;SDS011;56754;51.568;5.048;2023-07-16T09:17:39;9.07;;;3.20;;
69534;SDS011;56754;51.568;5.048;2023-07-16T09:20:04;9.77;;;3.33;;
69534;SDS011;56754;51.568;5.048;2023-07-16T09:22:30;9.18;;;3.50;;
69534;SDS011;56754;51.568;5.048;2023-07-16T09:24:55;7.40;;;3.40;;
69534;SDS011;56754;51.568;5.048;2023-07-16T09:27:20;6.77;;;3.03;;
69534;SDS011;56754;51.568;5.048;2023-07-16T09:29:46;7.73;;;3.00;;
69534;SDS011;56754;51.568;5.048;2023-07-16T09:32:11;8.50;;;3.50;;
69534;SDS011;56754;51.568;5.048;2023-07-16T09:34:36;9.13;;;3.53;;
69534;SDS011;56754;51.568;5.048;2023-07-16T09:37:02;7.53;;;3.20;;
69534;SDS011;56754;51.568;5.048;2023-07-16T09:39:29;7.97;;;3.33;;
69534;SDS011;56754;51.568;5.048;2023-07-16T09:41:56;9.00;;;3.33;;
69534;SDS011;56754;51.568;5.048;2023-07-16T09:44:22;8.45;;;3.60;;
69534;SDS011;56754;51.568;5.048;2023-07-16T09:46:48;8.47;;;3.60;;
69534;SDS011;56754;51.568;5.048;2023-07-16T09:49:14;9.23;;;3.70;;
69534;SDS011;56754;51.568;5.048;2023-07-16T09:51:40;8.35;;;3.50;;
69534;SDS011;56754;51.568;5.048;2023-07-16T09:54:07;10.35;;;3.80;;
69534;SDS011;56754;51.568;5.048;2023-07-16T09:56:57;7.47;;;3.05;;
69534;SDS011;56754;51.568;5.048;2023-07-16T09:59:23;8.50;;;3.63;;
69534;SDS011;56754;51.568;5.048;2023-07-16T10:01:51;7.03;;;3.47;;
69534;SDS011;56754;51.568;5.048;2023-07-16T10:04:18;8.90;;;3.63;;
69534;SDS011;56754;51.568;5.048;2023-07-16T10:07:02;7.05;;;3.00;;
69534;SDS011;56754;51.568;5.048;2023-07-16T10:09:38;6.93;;;3.00;;
69534;SDS011;56754;51.568;5.048;2023-07-16T10:14:44;7.67;;;3.10;;
69534;SDS011;56754;51.568;5.048;2023-07-16T10:17:14;7.50;;;3.38;;
69534;SDS011;56754;51.568;5.048;2023-07-16T10:19:46;7.57;;;3.10;;
69534;SDS011;56754;51.568;5.048;2023-07-16T10:22:14;8.13;;;3.60;;
69534;SDS011;56754;51.568;5.048;2023-07-16T10:24:40;7.77;;;3.30;;
69534;SDS011;56754;51.568;5.048;2023-07-16T10:27:05;9.90;;;3.53;;
69534;SDS011;56754;51.568;5.048;2023-07-16T10:29:31;7.07;;;3.37;;
69534;SDS011;56754;51.568;5.048;2023-07-16T10:31:56;7.95;;;3.25;;
69534;SDS011;56754;51.568;5.048;2023-07-16T10:34:23;8.40;;;3.50;;
69534;SDS011;56754;51.568;5.048;2023-07-16T10:36:50;10.18;;;3.15;;
69534;SDS011;56754;51.568;5.048;2023-07-16T10:39:15;9.13;;;3.35;;
69534;SDS011;56754;51.568;5.048;2023-07-16T10:41:40;8.63;;;3.37;;
69534;SDS011;56754;51.568;5.048;2023-07-16T10:44:08;8.30;;;3.23;;
69534;SDS011;56754;51.568;5.048;2023-07-16T10:46:33;8.53;;;3.20;;
69534;SDS011;56754;51.568;5.048;2023-07-16T10:48:59;6.70;;;3.22;;
69534;SDS011;56754;51.568;5.048;2023-07-16T10:51:25;7.50;;;3.50;;
69534;SDS011;56754;51.568;5.048;2023-07-16T10:53:55;7.72;;;3.33;;
69534;SDS011;56754;51.568;5.048;2023-07-16T10:56:20;6.80;;;3.23;;
69534;SDS011;56754;51.568;5.048;2023-07-16T10:58:46;9.05;;;3.70;;
69534;SDS011;56754;51.568;5.048;2023-07-16T11:01:11;8.63;;;3.20;;
69534;SDS011;56754;51.568;5.048;2023-07-16T11:03:37;12.17;;;3.80;;
69534;SDS011;56754;51.568;5.048;2023-07-16T11:06:06;7.80;;;3.50;;
69534;SDS011;56754;51.568;5.048;2023-07-16T11:08:34;8.93;;;3.08;;
69534;SDS011;56754;51.568;5.048;2023-07-16T11:11:00;8.02;;;3.08;;
69534;SDS011;56754;51.568;5.048;2023-07-16T11:13:28;8.63;;;3.43;;
69534;SDS011;56754;51.568;5.048;2023-07-16T11:15:56;8.93;;;3.10;;
69534;SDS011;56754;51.568;5.048;2023-07-16T11:18:22;9.13;;;3.70;;
69534;SDS011;56754;51.568;5.048;2023-07-16T11:20:50;10.45;;;3.28;;
69534;SDS011;56754;51.568;5.048;2023-07-16T11:23:16;8.30;;;3.33;;
69534;SDS011;56754;51.568;5.048;2023-07-16T11:25:45;7.68;;;3.67;;
69534;SDS011;56754;51.568;5.048;2023-07-16T11:28:11;7.88;;;3.30;;
69534;SDS011;56754;51.568;5.048;2023-07-16T11:30:36;7.57;;;3.13;;
69534;SDS011;56754;51.568;5.048;2023-07-16T11:33:02;8.40;;;3.50;;
69534;SDS011;56754;51.568;5.048;2023-07-16T11:35:27;8.40;;;3.57;;
69534;SDS011;56754;51.568;5.048;2023-07-16T11:37:54;8.02;;;3.42;;
69534;SDS011;56754;51.568;5.048;2023-07-16T11:40:19;7.27;;;3.40;;
69534;SDS011;56754;51.568;5.048;2023-07-16T11:42:45;10.50;;;3.65;;
69534;SDS011;56754;51.568;5.048;2023-07-16T11:45:15;9.80;;;4.00;;
69534;SDS011;56754;51.568;5.048;2023-07-16T11:47:45;7.88;;;3.22;;
69534;SDS011;56754;51.568;5.048;2023-07-16T11:50:11;7.45;;;3.20;;
69534;SDS011;56754;51.568;5.048;2023-07-16T11:52:38;7.53;;;3.57;;
69534;SDS011;56754;51.568;5.048;2023-07-16T11:55:03;7.97;;;3.47;;
69534;SDS011;56754;51.568;5.048;2023-07-16T11:57:29;6.85;;;2.83;;
69534;SDS011;56754;51.568;5.048;2023-07-16T11:59:55;7.23;;;3.30;;
69534;SDS011;56754;51.568;5.048;2023-07-16T12:02:20;6.57;;;3.08;;
69534;SDS011;56754;51.568;5.048;2023-07-16T12:04:46;8.90;;;3.60;;
69534;SDS011;56754;51.568;5.048;2023-07-16T12:07:11;7.47;;;3.00;;
69534;SDS011;56754;51.568;5.048;2023-07-16T12:09:37;6.57;;;2.97;;
69534;SDS011;56754;51.568;5.048;2023-07-16T12:12:02;7.27;;;3.50;;
69534;SDS011;56754;51.568;5.048;2023-07-16T12:14:28;8.13;;;3.30;;
69534;SDS011;56754;51.568;5.048;2023-07-16T12:16:53;8.17;;;3.23;;
69534;SDS011;56754;51.568;5.048;2023-07-16T12:19:19;8.10;;;3.00;;
69534;SDS011;56754;51.568;5.048;2023-07-16T12:21:44;7.47;;;3.23;;
69534;SDS011;56754;51.568;5.048;2023-07-16T12:24:09;8.00;;;3.27;;
69534;SDS011;56754;51.568;5.048;2023-07-16T12:26:35;6.97;;;3.30;;
69534;SDS011;56754;51.568;5.048;2023-07-16T12:29:01;7.23;;;3.00;;
69534;SDS011;56754;51.568;5.048;2023-07-16T12:31:27;6.75;;;2.75;;
69534;SDS011;56754;51.568;5.048;2023-07-16T12:33:52;6.57;;;3.30;;
69534;SDS011;56754;51.568;5.048;2023-07-16T12:36:17;7.10;;;3.27;;
69534;SDS011;56754;51.568;5.048;2023-07-16T12:38:42;6.67;;;2.53;;
69534;SDS011;56754;51.568;5.048;2023-07-16T12:41:08;7.00;;;2.70;;
69534;SDS011;56754;51.568;5.048;2023-07-16T12:43:33;6.27;;;2.97;;
69534;SDS011;56754;51.568;5.048;2023-07-16T12:45:59;5.13;;;2.65;;
69534;SDS011;56754;51.568;5.048;2023-07-16T12:48:29;7.40;;;3.03;;
69534;SDS011;56754;51.568;5.048;2023-07-16T12:50:55;5.45;;;2.67;;
69534;SDS011;56754;51.568;5.048;2023-07-16T12:53:20;5.00;;;2.67;;
69534;SDS011;56754;51.568;5.048;2023-07-16T12:55:45;6.27;;;2.70;;
69534;SDS011;56754;51.568;5.048;2023-07-16T12:58:10;6.00;;;3.03;;
69534;SDS011;56754;51.568;5.048;2023-07-16T13:00:36;7.13;;;2.85;;
69534;SDS011;56754;51.568;5.048;2023-07-16T13:03:01;8.53;;;3.37;;
69534;SDS011;56754;51.568;5.048;2023-07-16T13:05:26;7.07;;;2.80;;
69534;SDS011;56754;51.568;5.048;2023-07-16T13:07:52;7.00;;;3.10;;
69534;SDS011;56754;51.568;5.048;2023-07-16T13:10:17;6.13;;;2.63;;
69534;SDS011;56754;51.568;5.048;2023-07-16T13:12:42;5.83;;;2.70;;
69534;SDS011;56754;51.568;5.048;2023-07-16T13:15:08;5.80;;;2.60;;
69534;SDS011;56754;51.568;5.048;2023-07-16T13:17:33;7.13;;;2.88;;
69534;SDS011;56754;51.568;5.048;2023-07-16T13:19:58;5.93;;;2.60;;
69534;SDS011;56754;51.568;5.048;2023-07-16T13:22:24;8.10;;;2.70;;
69534;SDS011;56754;51.568;5.048;2023-07-16T13:24:49;6.30;;;2.40;;
69534;SDS011;56754;51.568;5.048;2023-07-16T13:27:21;5.77;;;2.53;;
69534;SDS011;56754;51.568;5.048;2023-07-16T13:29:49;6.53;;;2.50;;
69534;SDS011;56754;51.568;5.048;2023-07-16T13:32:15;4.97;;;2.37;;
69534;SDS011;56754;51.568;5.048;2023-07-16T13:34:40;6.25;;;2.60;;
69534;SDS011;56754;51.568;5.048;2023-07-16T13:37:06;6.93;;;2.13;;
69534;SDS011;56754;51.568;5.048;2023-07-16T13:39:31;6.17;;;2.20;;
69534;SDS011;56754;51.568;5.048;2023-07-16T13:41:56;5.53;;;2.20;;
69534;SDS011;56754;51.568;5.048;2023-07-16T13:44:21;4.95;;;2.42;;
69534;SDS011;56754;51.568;5.048;2023-07-16T13:46:47;5.47;;;2.17;;
69534;SDS011;56754;51.568;5.048;2023-07-16T13:49:12;5.37;;;2.10;;
69534;SDS011;56754;51.568;5.048;2023-07-16T13:51:38;6.43;;;2.17;;
69534;SDS011;56754;51.568;5.048;2023-07-16T13:54:03;5.87;;;2.47;;
69534;SDS011;56754;51.568;5.048;2023-07-16T13:56:28;4.77;;;2.30;;
69534;SDS011;56754;51.568;5.048;2023-07-16T13:58:53;5.23;;;2.30;;
69534;SDS011;56754;51.568;5.048;2023-07-16T14:01:19;4.40;;;1.90;;
69534;SDS011;56754;51.568;5.048;2023-07-16T14:03:44;5.68;;;2.22;;
69534;SDS011;56754;51.568;5.048;2023-07-16T14:06:10;4.60;;;2.13;;
69534;SDS011;56754;51.568;5.048;2023-07-16T14:08:35;5.17;;;2.10;;
69534;SDS011;56754;51.568;5.048;2023-07-16T14:11:00;4.90;;;2.00;;
69534;SDS011;56754;51.568;5.048;2023-07-16T14:13:25;4.60;;;2.00;;
69534;SDS011;56754;51.568;5.048;2023-07-16T14:15:51;5.00;;;2.05;;
69534;SDS011;56754;51.568;5.048;2023-07-16T14:18:16;5.23;;;2.00;;
69534;SDS011;56754;51.568;5.048;2023-07-16T14:20:41;5.60;;;2.10;;
69534;SDS011;56754;51.568;5.048;2023-07-16T14:23:07;4.40;;;1.97;;
69534;SDS011;56754;51.568;5.048;2023-07-16T14:25:32;5.17;;;1.90;;
69534;SDS011;56754;51.568;5.048;2023-07-16T14:27:57;5.40;;;1.70;;
69534;SDS011;56754;51.568;5.048;2023-07-16T14:30:22;4.93;;;1.90;;
69534;SDS011;56754;51.568;5.048;2023-07-16T14:32:48;5.90;;;2.20;;
69534;SDS011;56754;51.568;5.048;2023-07-16T14:35:13;4.97;;;2.10;;
69534;SDS011;56754;51.568;5.048;2023-07-16T14:37:38;4.50;;;2.03;;
69534;SDS011;56754;51.568;5.048;2023-07-16T14:40:04;5.27;;;2.00;;
69534;SDS011;56754;51.568;5.048;2023-07-16T14:42:30;4.72;;;1.85;;